createdAt,value
2019-01-18T00:00:36.274Z,0.00
2019-01-18T00:02:29.047Z,0.00
2019-01-18T00:03:28.915Z,0.00
2019-01-18T00:05:21.698Z,0.00
2019-01-18T00:06:21.562Z,0.00
2019-01-18T00:08:14.342Z,0.00
2019-01-18T00:09:14.225Z,0.00
2019-01-18T00:11:06.988Z,0.00
2019-01-18T00:12:06.862Z,0.00
2019-01-18T00:13:59.654Z,0.00
2019-01-18T00:14:59.505Z,0.00
2019-01-18T00:16:52.278Z,0.00
2019-01-18T00:17:52.151Z,0.00
2019-01-18T00:19:44.945Z,0.00
2019-01-18T00:20:44.819Z,0.00
2019-01-18T00:22:37.587Z,0.00
2019-01-18T00:23:37.447Z,0.00
2019-01-18T00:25:30.237Z,0.00
2019-01-18T00:26:30.090Z,0.00
2019-01-18T00:28:22.872Z,0.00
2019-01-18T00:29:22.737Z,0.00
2019-01-18T00:31:15.520Z,0.00
2019-01-18T00:32:15.383Z,0.00
2019-01-18T00:34:08.183Z,0.00
2019-01-18T00:35:08.036Z,0.00
2019-01-18T00:37:01.396Z,0.00
2019-01-18T00:38:00.678Z,0.00
2019-01-18T00:39:53.459Z,0.00
2019-01-18T00:40:53.330Z,0.00
2019-01-18T00:42:46.227Z,0.00
2019-01-18T00:43:46.089Z,0.00
2019-01-18T00:45:38.862Z,0.00
2019-01-18T00:46:38.721Z,0.00
2019-01-18T00:48:31.502Z,0.00
2019-01-18T00:49:31.377Z,0.00
2019-01-18T00:51:24.233Z,0.00
2019-01-18T00:52:24.025Z,0.00
2019-01-18T00:54:16.823Z,0.00
2019-01-18T00:55:16.674Z,0.00
2019-01-18T00:57:09.444Z,0.00
2019-01-18T00:58:09.310Z,0.00
2019-01-18T01:00:02.093Z,0.00
2019-01-18T01:01:01.973Z,0.00
2019-01-18T01:02:54.737Z,0.00
2019-01-18T01:03:54.615Z,0.00
2019-01-18T01:05:47.393Z,0.00
2019-01-18T01:06:47.278Z,0.00
2019-01-18T01:08:40.033Z,0.00
2019-01-18T01:09:39.899Z,0.00
2019-01-18T01:11:32.690Z,0.00
2019-01-18T01:12:32.552Z,0.00
2019-01-18T01:14:25.443Z,0.00
2019-01-18T01:15:25.306Z,0.00
2019-01-18T01:17:18.077Z,0.00
2019-01-18T01:18:17.951Z,0.00
2019-01-18T01:20:10.722Z,0.00
2019-01-18T01:21:10.597Z,0.00
2019-01-18T01:23:03.473Z,0.00
2019-01-18T01:24:03.354Z,0.00
2019-01-18T01:25:56.118Z,0.00
2019-01-18T01:26:55.997Z,0.00
2019-01-18T01:28:48.772Z,0.00
2019-01-18T01:29:48.684Z,0.00
2019-01-18T01:31:41.411Z,0.00
2019-01-18T01:32:41.291Z,0.00
2019-01-18T01:34:34.069Z,0.00
2019-01-18T01:35:33.942Z,0.00
2019-01-18T01:37:26.733Z,0.00
2019-01-18T01:38:26.580Z,0.00
2019-01-18T01:40:19.466Z,0.00
2019-01-18T01:41:19.335Z,0.00
2019-01-18T01:43:12.130Z,0.00
2019-01-18T01:44:11.981Z,0.00
2019-01-18T01:46:04.754Z,0.00
2019-01-18T01:47:04.620Z,0.00
2019-01-18T01:48:58.242Z,0.00
2019-01-18T01:49:57.585Z,0.00
2019-01-18T01:51:50.723Z,0.00
2019-01-18T01:52:50.026Z,0.00
2019-01-18T01:54:42.866Z,0.00
2019-01-18T01:55:42.748Z,0.00
2019-01-18T01:57:35.547Z,0.00
2019-01-18T01:58:35.393Z,0.00
2019-01-18T02:00:28.191Z,0.00
2019-01-18T02:01:28.071Z,0.00
2019-01-18T02:03:20.842Z,0.00
2019-01-18T02:04:20.717Z,0.00
2019-01-18T02:06:13.583Z,0.00
2019-01-18T02:07:13.459Z,0.00
2019-01-18T02:09:06.247Z,0.00
2019-01-18T02:10:06.105Z,0.00
2019-01-18T02:11:58.886Z,0.00
2019-01-18T02:12:58.753Z,0.00
2019-01-18T02:14:51.633Z,0.00
2019-01-18T02:15:51.505Z,0.00
2019-01-18T02:17:44.395Z,0.00
2019-01-18T02:18:44.266Z,0.00
2019-01-18T02:20:37.557Z,0.00
2019-01-18T02:21:37.426Z,0.00
2019-01-18T02:23:30.202Z,0.00
2019-01-18T02:24:30.073Z,0.00
2019-01-18T02:26:22.867Z,0.00
2019-01-18T02:27:22.724Z,0.00
2019-01-18T02:29:15.494Z,0.00
2019-01-18T02:30:15.958Z,0.00
2019-01-18T02:32:08.148Z,0.00
2019-01-18T02:33:08.000Z,0.00
2019-01-18T02:35:00.877Z,0.00
2019-01-18T02:36:00.761Z,0.00
2019-01-18T02:37:54.048Z,0.00
2019-01-18T02:38:53.925Z,0.00
2019-01-18T02:40:46.790Z,0.00
2019-01-18T02:41:46.555Z,0.00
2019-01-18T02:43:39.575Z,0.00
2019-01-18T02:44:39.403Z,0.00
2019-01-18T02:46:32.202Z,0.00
2019-01-18T02:47:32.090Z,0.00
2019-01-18T02:49:24.842Z,0.00
2019-01-18T02:50:24.710Z,0.00
2019-01-18T02:52:17.488Z,0.00
2019-01-18T02:53:17.356Z,0.00
2019-01-18T02:55:10.220Z,0.00
2019-01-18T02:56:10.100Z,0.00
2019-01-18T02:58:02.970Z,0.00
2019-01-18T02:59:02.852Z,0.00
2019-01-18T03:00:55.732Z,0.00
2019-01-18T03:01:55.593Z,0.00
2019-01-18T03:03:48.506Z,0.00
2019-01-18T03:04:48.352Z,0.00
2019-01-18T03:06:41.236Z,0.00
2019-01-18T03:07:41.100Z,0.00
2019-01-18T03:09:33.985Z,0.00
2019-01-18T03:10:33.839Z,0.00
2019-01-18T03:12:26.633Z,0.00
2019-01-18T03:13:26.497Z,0.00
2019-01-18T03:15:19.382Z,0.00
2019-01-18T03:16:19.297Z,0.00
2019-01-18T03:18:12.035Z,0.00
2019-01-18T03:19:11.893Z,0.00
2019-01-18T03:21:04.743Z,0.00
2019-01-18T03:22:04.605Z,0.00
2019-01-18T03:23:57.422Z,0.00
2019-01-18T03:24:57.297Z,0.00
2019-01-18T03:26:50.196Z,0.00
2019-01-18T03:27:50.040Z,0.00
2019-01-18T03:29:42.913Z,0.00
2019-01-18T03:30:42.785Z,0.00
2019-01-18T03:32:35.683Z,0.00
2019-01-18T03:33:35.530Z,0.00
2019-01-18T03:35:28.323Z,0.00
2019-01-18T03:36:28.194Z,0.00
2019-01-18T03:38:21.061Z,0.00
2019-01-18T03:39:20.942Z,0.00
2019-01-18T03:41:13.849Z,0.00
2019-01-18T03:42:13.685Z,0.00
2019-01-18T03:44:06.554Z,0.00
2019-01-18T03:45:06.428Z,0.00
2019-01-18T03:46:59.326Z,0.00
2019-01-18T03:47:59.180Z,0.00
2019-01-18T03:49:51.978Z,0.00
2019-01-18T03:50:51.842Z,0.00
2019-01-18T03:52:44.714Z,0.00
2019-01-18T03:53:44.573Z,0.00
2019-01-18T03:55:37.569Z,0.00
2019-01-18T03:56:37.431Z,0.00
2019-01-18T03:58:30.213Z,0.00
2019-01-18T03:59:30.112Z,0.00
2019-01-18T04:01:22.965Z,0.00
2019-01-18T04:02:22.830Z,0.00
2019-01-18T04:04:15.636Z,0.00
2019-01-18T04:05:15.493Z,0.00
2019-01-18T04:07:08.868Z,0.00
2019-01-18T04:08:08.732Z,0.00
2019-01-18T04:10:01.631Z,0.00
2019-01-18T04:11:01.488Z,0.00
2019-01-18T04:12:54.361Z,0.00
2019-01-18T04:13:54.246Z,0.00
2019-01-18T04:15:47.153Z,0.00
2019-01-18T04:16:46.981Z,0.00
2019-01-18T04:18:40.066Z,0.00
2019-01-18T04:19:39.935Z,0.00
2019-01-18T04:21:32.831Z,0.00
2019-01-18T04:22:32.693Z,0.00
2019-01-18T04:24:25.570Z,0.00
2019-01-18T04:25:25.432Z,0.00
2019-01-18T04:27:18.326Z,0.00
2019-01-18T04:28:18.204Z,0.00
2019-01-18T04:30:11.080Z,0.00
2019-01-18T04:31:10.955Z,0.00
2019-01-18T04:33:03.825Z,0.00
2019-01-18T04:34:03.683Z,0.00
2019-01-18T04:35:56.579Z,0.00
2019-01-18T04:36:56.451Z,0.00
2019-01-18T04:38:49.317Z,0.00
2019-01-18T04:39:50.523Z,0.00
2019-01-18T04:41:42.064Z,0.00
2019-01-18T04:42:41.929Z,0.00
2019-01-18T04:44:35.297Z,0.00
2019-01-18T04:45:34.686Z,0.00
2019-01-18T04:47:27.594Z,0.00
2019-01-18T04:48:27.432Z,0.00
2019-01-18T04:50:20.332Z,0.00
2019-01-18T04:51:20.186Z,0.00
2019-01-18T04:53:13.070Z,0.00
2019-01-18T04:54:12.962Z,0.00
2019-01-18T04:56:05.816Z,0.00
2019-01-18T04:57:05.695Z,0.00
2019-01-18T04:58:58.591Z,0.00
2019-01-18T04:59:58.435Z,0.00
2019-01-18T05:01:51.333Z,0.00
2019-01-18T05:02:51.187Z,0.00
2019-01-18T05:04:44.073Z,0.00
2019-01-18T05:05:43.930Z,0.00
2019-01-18T05:07:36.806Z,0.00
2019-01-18T05:08:36.683Z,0.00
2019-01-18T05:10:30.504Z,0.00
2019-01-18T05:11:30.356Z,0.00
2019-01-18T05:13:23.228Z,0.00
2019-01-18T05:14:23.102Z,0.00
2019-01-18T05:16:15.973Z,0.00
2019-01-18T05:17:15.853Z,0.00
2019-01-18T05:19:08.742Z,0.00
2019-01-18T05:20:08.624Z,0.00
2019-01-18T05:22:01.965Z,0.00
2019-01-18T05:23:01.462Z,0.00
2019-01-18T05:24:54.336Z,0.00
2019-01-18T05:25:54.202Z,0.00
2019-01-18T05:27:47.097Z,0.00
2019-01-18T05:28:46.952Z,0.00
2019-01-18T05:30:40.061Z,0.00
2019-01-18T05:31:39.924Z,0.00
2019-01-18T05:33:32.807Z,0.00
2019-01-18T05:34:32.658Z,0.00
2019-01-18T05:36:25.548Z,0.00
2019-01-18T05:37:25.403Z,0.00
2019-01-18T05:39:18.296Z,0.00
2019-01-18T05:40:18.166Z,0.00
2019-01-18T05:42:11.058Z,0.00
2019-01-18T05:43:10.903Z,0.00
2019-01-18T05:45:03.912Z,0.00
2019-01-18T05:46:03.771Z,0.00
2019-01-18T05:47:56.655Z,0.00
2019-01-18T05:48:56.516Z,0.00
2019-01-18T05:50:49.406Z,0.00
2019-01-18T05:51:49.253Z,0.00
2019-01-18T05:53:42.145Z,0.00
2019-01-18T05:54:42.020Z,0.00
2019-01-18T05:56:34.888Z,0.00
2019-01-18T05:57:34.771Z,0.00
2019-01-18T05:59:27.665Z,0.00
2019-01-18T06:00:27.504Z,0.00
2019-01-18T06:02:20.408Z,0.00
2019-01-18T06:03:20.257Z,0.00
2019-01-18T06:05:13.136Z,0.00
2019-01-18T06:06:13.018Z,0.00
2019-01-18T06:08:05.890Z,0.00
2019-01-18T06:09:05.760Z,0.00
2019-01-18T06:10:58.635Z,0.00
2019-01-18T06:11:58.518Z,0.00
2019-01-18T06:13:51.400Z,0.00
2019-01-18T06:14:51.255Z,0.00
2019-01-18T06:16:44.134Z,0.00
2019-01-18T06:17:44.008Z,0.00
2019-01-18T06:19:36.882Z,0.00
2019-01-18T06:20:36.840Z,0.00
2019-01-18T06:22:29.634Z,0.00
2019-01-18T06:23:29.510Z,0.00
2019-01-18T06:25:22.405Z,0.00
2019-01-18T06:26:22.255Z,0.00
2019-01-18T06:28:16.566Z,0.00
2019-01-18T06:29:16.436Z,0.00
2019-01-18T06:31:09.319Z,0.00
2019-01-18T06:32:09.183Z,0.00
2019-01-18T06:34:02.059Z,0.00
2019-01-18T06:35:01.953Z,0.00
2019-01-18T06:36:55.338Z,0.00
2019-01-18T06:37:55.202Z,0.00
2019-01-18T06:39:48.090Z,0.00
2019-01-18T06:40:47.947Z,0.00
2019-01-18T06:42:54.960Z,0.00
2019-01-18T06:43:54.822Z,0.00
2019-01-18T06:45:52.732Z,0.00
2019-01-18T06:46:52.601Z,4.00
2019-01-18T06:48:46.916Z,0.00
2019-01-18T06:49:46.780Z,4.00
2019-01-18T06:51:39.672Z,4.00
2019-01-18T06:52:39.539Z,4.00
2019-01-18T06:54:33.843Z,4.00
2019-01-18T06:55:33.711Z,8.00
2019-01-18T06:57:26.613Z,12.00
2019-01-18T06:58:26.454Z,16.00
2019-01-18T07:00:19.345Z,16.00
2019-01-18T07:01:19.705Z,20.00
2019-01-18T07:03:12.092Z,28.00
2019-01-18T07:04:11.957Z,32.00
2019-01-18T07:06:04.843Z,40.00
2019-01-18T07:07:04.701Z,44.00
2019-01-18T07:08:58.096Z,56.00
2019-01-18T07:09:57.992Z,68.00
2019-01-18T07:11:50.846Z,80.00
2019-01-18T07:12:50.716Z,92.00
2019-01-18T07:14:44.120Z,112.00
2019-01-18T07:15:43.975Z,128.00
2019-01-18T07:17:36.862Z,152.00
2019-01-18T07:18:36.741Z,164.00
2019-01-18T07:20:30.534Z,192.00
2019-01-18T07:21:30.519Z,212.00
2019-01-18T07:23:23.273Z,244.00
2019-01-18T07:24:23.145Z,260.00
2019-01-18T07:26:16.031Z,296.00
2019-01-18T07:27:15.904Z,316.00
2019-01-18T07:29:08.804Z,356.00
2019-01-18T07:30:08.648Z,376.00
2019-01-18T07:32:01.542Z,420.00
2019-01-18T07:33:01.395Z,444.00
2019-01-18T07:34:54.282Z,500.00
2019-01-18T07:35:54.157Z,528.00
2019-01-18T07:37:47.561Z,580.00
2019-01-18T07:38:47.405Z,612.00
2019-01-18T07:40:40.299Z,660.00
2019-01-18T07:41:40.168Z,684.00
2019-01-18T07:43:33.044Z,732.00
2019-01-18T07:44:32.914Z,760.00
2019-01-18T07:46:25.788Z,820.00
2019-01-18T07:47:25.683Z,860.00
2019-01-18T07:49:18.613Z,924.00
2019-01-18T07:50:20.146Z,952.00
2019-01-18T07:52:11.296Z,1012.00
2019-01-18T07:53:11.159Z,1048.00
2019-01-18T07:55:04.035Z,1116.00
2019-01-18T07:56:03.925Z,1152.00
2019-01-18T07:57:56.792Z,1220.00
2019-01-18T07:58:56.676Z,1252.00
2019-01-18T08:00:49.564Z,1316.00
2019-01-18T08:01:49.409Z,1348.00
2019-01-18T08:03:42.297Z,1396.00
2019-01-18T08:04:42.172Z,1428.00
2019-01-18T08:06:35.057Z,1480.00
2019-01-18T08:07:34.913Z,1508.00
2019-01-18T08:09:27.788Z,1568.00
2019-01-18T08:10:27.684Z,1596.00
2019-01-18T08:12:20.578Z,1640.00
2019-01-18T08:13:20.411Z,1668.00
2019-01-18T08:15:13.302Z,1720.00
2019-01-18T08:16:13.157Z,1744.00
2019-01-18T08:18:06.029Z,1792.00
2019-01-18T08:19:05.908Z,1808.00
2019-01-18T08:20:58.781Z,1852.00
2019-01-18T08:21:59.153Z,1872.00
2019-01-18T08:23:51.533Z,1912.00
2019-01-18T08:24:51.409Z,1928.00
2019-01-18T08:26:44.286Z,1956.00
2019-01-18T08:27:44.154Z,1968.00
2019-01-18T08:29:37.058Z,1996.00
2019-01-18T08:30:36.909Z,2012.00
2019-01-18T08:32:29.778Z,2040.00
2019-01-18T08:33:29.652Z,2052.00
2019-01-18T08:35:22.550Z,2076.00
2019-01-18T08:36:22.409Z,2088.00
2019-01-18T08:38:15.290Z,2112.00
2019-01-18T08:39:15.154Z,2116.00
2019-01-18T08:41:08.028Z,2132.00
2019-01-18T08:42:07.898Z,2136.00
2019-01-18T08:44:00.786Z,2156.00
2019-01-18T08:45:00.650Z,2156.00
2019-01-18T08:46:53.549Z,2164.00
2019-01-18T08:47:53.421Z,2176.00
2019-01-18T08:49:46.290Z,2188.00
2019-01-18T08:50:46.150Z,2196.00
2019-01-18T08:52:39.041Z,2204.00
2019-01-18T08:53:38.900Z,2204.00
2019-01-18T08:55:32.306Z,2216.00
2019-01-18T08:56:32.162Z,2220.00
2019-01-18T08:58:25.050Z,2232.00
2019-01-18T08:59:24.934Z,2240.00
2019-01-18T09:01:17.798Z,2252.00
2019-01-18T09:02:17.661Z,2256.00
2019-01-18T09:04:10.549Z,2264.00
2019-01-18T09:05:10.413Z,2268.00
2019-01-18T09:07:03.295Z,2280.00
2019-01-18T09:08:03.160Z,2288.00
2019-01-18T09:09:56.042Z,2296.00
2019-01-18T09:10:55.920Z,2296.00
2019-01-18T09:12:48.800Z,2308.00
2019-01-18T09:13:48.683Z,2312.00
2019-01-18T09:15:41.560Z,2320.00
2019-01-18T09:16:41.412Z,2324.00
2019-01-18T09:18:34.306Z,2332.00
2019-01-18T09:19:34.164Z,2332.00
2019-01-18T09:21:27.042Z,2336.00
2019-01-18T09:22:26.911Z,2336.00
2019-01-18T09:24:19.799Z,2340.00
2019-01-18T09:25:19.658Z,2340.00
2019-01-18T09:27:12.533Z,2340.00
2019-01-18T09:28:12.410Z,2340.00
2019-01-18T09:30:05.395Z,2344.00
2019-01-18T09:31:05.263Z,2344.00
2019-01-18T09:32:58.141Z,2344.00
2019-01-18T09:33:58.012Z,2344.00
2019-01-18T09:35:50.910Z,2348.00
2019-01-18T09:36:50.774Z,2344.00
2019-01-18T09:38:43.645Z,2344.00
2019-01-18T09:39:43.893Z,2344.00
2019-01-18T09:41:36.420Z,2348.00
2019-01-18T09:42:36.256Z,2348.00
2019-01-18T09:44:29.140Z,2348.00
2019-01-18T09:45:29.013Z,2348.00
2019-01-18T09:47:21.887Z,2352.00
2019-01-18T09:48:21.763Z,2352.00
2019-01-18T09:50:14.645Z,2352.00
2019-01-18T09:51:14.547Z,2348.00
2019-01-18T09:53:07.407Z,2352.00
2019-01-18T09:54:07.258Z,2352.00
2019-01-18T09:56:00.155Z,2352.00
2019-01-18T09:57:00.001Z,2352.00
2019-01-18T09:58:52.901Z,2348.00
2019-01-18T09:59:52.755Z,2348.00
2019-01-18T10:01:49.300Z,2344.00
2019-01-18T10:02:45.501Z,2340.00
2019-01-18T10:04:38.389Z,2336.00
2019-01-18T10:05:38.257Z,2336.00
2019-01-18T10:07:31.139Z,2328.00
2019-01-18T10:08:31.006Z,2324.00
2019-01-18T10:10:23.905Z,2320.00
2019-01-18T10:11:23.751Z,2320.00
2019-01-18T10:13:16.638Z,2316.00
2019-01-18T10:14:16.506Z,2308.00
2019-01-18T10:16:09.392Z,2308.00
2019-01-18T10:17:09.273Z,2312.00
2019-01-18T10:19:02.146Z,2352.00
2019-01-18T10:20:02.003Z,2344.00
2019-01-18T10:21:54.791Z,2352.00
2019-01-18T10:22:54.657Z,2356.00
2019-01-18T10:24:47.527Z,2372.00
2019-01-18T10:25:47.403Z,2412.00
2019-01-18T10:27:40.288Z,2504.00
2019-01-18T10:28:40.173Z,2580.00
2019-01-18T10:30:33.058Z,2556.00
2019-01-18T10:31:32.907Z,2516.00
2019-01-18T10:33:25.790Z,2908.00
2019-01-18T10:34:25.659Z,2940.00
2019-01-18T10:36:18.599Z,2724.00
2019-01-18T10:37:18.396Z,2672.00
2019-01-18T10:39:11.285Z,2724.00
2019-01-18T10:40:11.186Z,2892.00
2019-01-18T10:42:04.046Z,2624.00
2019-01-18T10:43:03.938Z,2672.00
2019-01-18T10:44:56.793Z,2652.00
2019-01-18T10:45:56.650Z,2272.00
2019-01-18T10:47:50.030Z,2152.00
2019-01-18T10:48:49.409Z,2152.00
2019-01-18T10:50:42.272Z,2556.00
2019-01-18T10:51:42.150Z,2272.00
2019-01-18T10:53:35.051Z,2072.00
2019-01-18T10:54:34.927Z,2040.00
2019-01-18T10:56:27.782Z,2144.00
2019-01-18T10:57:27.647Z,2240.00
2019-01-18T10:59:20.547Z,2284.00
2019-01-18T11:00:20.399Z,2580.00
2019-01-18T11:02:13.293Z,2560.00
2019-01-18T11:03:13.166Z,2584.00
2019-01-18T11:05:06.031Z,2560.00
2019-01-18T11:06:05.903Z,2572.00
2019-01-18T11:07:58.779Z,2588.00
2019-01-18T11:08:58.655Z,2596.00
2019-01-18T11:10:51.555Z,2616.00
2019-01-18T11:11:51.402Z,2628.00
2019-01-18T11:13:44.289Z,2628.00
2019-01-18T11:14:44.149Z,2640.00
2019-01-18T11:16:37.028Z,2656.00
2019-01-18T11:17:36.895Z,2668.00
2019-01-18T11:19:29.772Z,2668.00
2019-01-18T11:20:29.647Z,2680.00
2019-01-18T11:22:22.537Z,2760.00
2019-01-18T11:23:22.405Z,2780.00
2019-01-18T11:25:15.759Z,2768.00
2019-01-18T11:26:15.152Z,2728.00
2019-01-18T11:28:08.033Z,2700.00
2019-01-18T11:29:07.896Z,2692.00
2019-01-18T11:31:00.776Z,2688.00
2019-01-18T11:32:00.648Z,2660.00
2019-01-18T11:33:53.537Z,2688.00
2019-01-18T11:34:53.394Z,2676.00
2019-01-18T11:36:46.318Z,2672.00
2019-01-18T11:37:46.142Z,2672.00
2019-01-18T11:39:39.017Z,2660.00
2019-01-18T11:40:38.895Z,2660.00
2019-01-18T11:42:31.776Z,2648.00
2019-01-18T11:43:31.651Z,2644.00
2019-01-18T11:45:24.528Z,2636.00
2019-01-18T11:46:24.416Z,2636.00
2019-01-18T11:48:17.371Z,2624.00
2019-01-18T11:49:17.257Z,2620.00
2019-01-18T11:51:10.170Z,2620.00
2019-01-18T11:52:10.007Z,2612.00
2019-01-18T11:54:03.188Z,2600.00
2019-01-18T11:55:03.053Z,2600.00
2019-01-18T11:56:55.948Z,2584.00
2019-01-18T11:57:55.802Z,2580.00
2019-01-18T11:59:50.416Z,2576.00
2019-01-18T12:00:48.593Z,2572.00
2019-01-18T12:02:41.436Z,2568.00
2019-01-18T12:03:41.306Z,2560.00
2019-01-18T12:05:34.198Z,2556.00
2019-01-18T12:06:34.050Z,2548.00
2019-01-18T12:08:26.968Z,2548.00
2019-01-18T12:09:26.795Z,2540.00
2019-01-18T12:11:19.700Z,2528.00
2019-01-18T12:12:19.553Z,2524.00
2019-01-18T12:14:12.428Z,2516.00
2019-01-18T12:15:12.303Z,2512.00
2019-01-18T12:17:05.187Z,2504.00
2019-01-18T12:18:05.052Z,2504.00
2019-01-18T12:19:57.934Z,2496.00
2019-01-18T12:20:57.808Z,2488.00
2019-01-18T12:22:50.700Z,2476.00
2019-01-18T12:23:50.541Z,2480.00
2019-01-18T12:25:43.444Z,2476.00
2019-01-18T12:26:43.298Z,2468.00
2019-01-18T12:28:36.191Z,2460.00
2019-01-18T12:29:36.052Z,2456.00
2019-01-18T12:31:28.929Z,2452.00
2019-01-18T12:32:28.971Z,2444.00
2019-01-18T12:34:21.674Z,2436.00
2019-01-18T12:35:21.544Z,2436.00
2019-01-18T12:37:14.426Z,2424.00
2019-01-18T12:38:14.299Z,2420.00
2019-01-18T12:40:07.179Z,2416.00
2019-01-18T12:41:07.044Z,2412.00
2019-01-18T12:42:59.925Z,2400.00
2019-01-18T12:43:59.813Z,2400.00
2019-01-18T12:45:52.698Z,2388.00
2019-01-18T12:46:52.543Z,2388.00
2019-01-18T12:48:45.430Z,2380.00
2019-01-18T12:49:45.290Z,2372.00
2019-01-18T12:51:38.279Z,2364.00
2019-01-18T12:52:38.147Z,2356.00
2019-01-18T12:54:31.135Z,2352.00
2019-01-18T12:55:30.995Z,2344.00
2019-01-18T12:57:23.978Z,2324.00
2019-01-18T12:58:23.852Z,2324.00
2019-01-18T13:00:16.736Z,2316.00
2019-01-18T13:01:16.605Z,2312.00
2019-01-18T13:03:09.483Z,2296.00
2019-01-18T13:04:09.352Z,2284.00
2019-01-18T13:06:02.256Z,2272.00
2019-01-18T13:07:02.114Z,2248.00
2019-01-18T13:08:54.974Z,2216.00
2019-01-18T13:09:54.851Z,2224.00
2019-01-18T13:11:47.734Z,2244.00
2019-01-18T13:12:47.605Z,2236.00
2019-01-18T13:14:40.476Z,2212.00
2019-01-18T13:15:40.343Z,2196.00
2019-01-18T13:17:33.331Z,2212.00
2019-01-18T13:18:33.218Z,2220.00
2019-01-18T13:20:26.093Z,2220.00
2019-01-18T13:21:25.951Z,2144.00
2019-01-18T13:23:18.825Z,2100.00
2019-01-18T13:24:18.699Z,2040.00
2019-01-18T13:26:11.576Z,2188.00
2019-01-18T13:27:11.442Z,2044.00
2019-01-18T13:29:04.321Z,2176.00
2019-01-18T13:30:04.191Z,2180.00
2019-01-18T13:31:56.985Z,2172.00
2019-01-18T13:32:56.872Z,2168.00
2019-01-18T13:34:49.629Z,2156.00
2019-01-18T13:35:49.508Z,2140.00
2019-01-18T13:37:42.283Z,2128.00
2019-01-18T13:38:42.158Z,2136.00
2019-01-18T13:40:34.924Z,2136.00
2019-01-18T13:41:34.794Z,2132.00
2019-01-18T13:43:27.561Z,2116.00
2019-01-18T13:44:27.461Z,2104.00
2019-01-18T13:46:20.223Z,2084.00
2019-01-18T13:47:20.120Z,2064.00
2019-01-18T13:49:12.873Z,2016.00
2019-01-18T13:50:12.732Z,1988.00
2019-01-18T13:52:05.545Z,1932.00
2019-01-18T13:53:05.434Z,1908.00
2019-01-18T13:54:58.198Z,1880.00
2019-01-18T13:55:58.037Z,1868.00
2019-01-18T13:57:50.858Z,1844.00
2019-01-18T13:58:50.679Z,1840.00
2019-01-18T14:00:43.463Z,1820.00
2019-01-18T14:01:43.328Z,1812.00
2019-01-18T14:03:36.133Z,1796.00
2019-01-18T14:04:35.980Z,1792.00
2019-01-18T14:06:28.751Z,1772.00
2019-01-18T14:07:28.634Z,1756.00
2019-01-18T14:09:21.394Z,1740.00
2019-01-18T14:10:21.268Z,1732.00
2019-01-18T14:12:14.035Z,1716.00
2019-01-18T14:13:13.918Z,1704.00
2019-01-18T14:15:06.684Z,1692.00
2019-01-18T14:16:06.579Z,1680.00
2019-01-18T14:17:59.357Z,1644.00
2019-01-18T14:18:59.210Z,1624.00
2019-01-18T14:20:52.078Z,1584.00
2019-01-18T14:21:51.862Z,1572.00
2019-01-18T14:23:44.638Z,1560.00
2019-01-18T14:24:44.520Z,1552.00
2019-01-18T14:26:37.389Z,1540.00
2019-01-18T14:27:37.254Z,1528.00
2019-01-18T14:29:30.037Z,1504.00
2019-01-18T14:30:29.907Z,1500.00
2019-01-18T14:32:22.778Z,1492.00
2019-01-18T14:33:22.668Z,1480.00
2019-01-18T14:35:15.521Z,1476.00
2019-01-18T14:36:15.297Z,1476.00
2019-01-18T14:38:08.607Z,1484.00
2019-01-18T14:39:08.475Z,1480.00
2019-01-18T14:41:01.549Z,1436.00
2019-01-18T14:42:01.672Z,1428.00
2019-01-18T14:43:53.988Z,1404.00
2019-01-18T14:44:53.856Z,1380.00
2019-01-18T14:46:46.728Z,1348.00
2019-01-18T14:47:46.596Z,1336.00
2019-01-18T14:49:39.374Z,1328.00
2019-01-18T14:50:39.248Z,1288.00
2019-01-18T14:52:32.017Z,1236.00
2019-01-18T14:53:31.900Z,1204.00
2019-01-18T14:55:24.672Z,1120.00
2019-01-18T14:56:24.584Z,1088.00
2019-01-18T14:58:17.435Z,1048.00
2019-01-18T14:59:17.325Z,1028.00
2019-01-18T15:01:10.169Z,976.00
2019-01-18T15:02:10.041Z,944.00
2019-01-18T15:04:02.840Z,880.00
2019-01-18T15:05:02.698Z,848.00
2019-01-18T15:06:55.796Z,804.00
2019-01-18T15:07:55.471Z,784.00
2019-01-18T15:09:48.314Z,736.00
2019-01-18T15:10:48.187Z,712.00
2019-01-18T15:12:41.012Z,668.00
2019-01-18T15:13:40.846Z,640.00
2019-01-18T15:15:33.612Z,600.00
2019-01-18T15:16:33.502Z,580.00
2019-01-18T15:18:26.262Z,544.00
2019-01-18T15:19:26.169Z,520.00
2019-01-18T15:21:18.940Z,484.00
2019-01-18T15:22:18.790Z,468.00
2019-01-18T15:24:12.164Z,428.00
2019-01-18T15:25:12.043Z,408.00
2019-01-18T15:27:05.464Z,372.00
2019-01-18T15:28:04.693Z,348.00
2019-01-18T15:29:57.475Z,304.00
2019-01-18T15:30:57.339Z,284.00
2019-01-18T15:32:50.227Z,248.00
2019-01-18T15:33:50.088Z,228.00
2019-01-18T15:35:42.957Z,200.00
2019-01-18T15:36:43.844Z,184.00
2019-01-18T15:38:35.636Z,160.00
2019-01-18T15:39:35.472Z,144.00
2019-01-18T15:41:28.290Z,116.00
2019-01-18T15:42:28.138Z,108.00
2019-01-18T15:44:20.989Z,88.00
2019-01-18T15:45:20.781Z,76.00
2019-01-18T15:47:13.646Z,64.00
2019-01-18T15:48:13.540Z,56.00
2019-01-18T15:50:06.305Z,40.00
2019-01-18T15:51:06.174Z,36.00
2019-01-18T15:52:59.673Z,28.00
2019-01-18T15:53:59.542Z,28.00
2019-01-18T15:55:52.315Z,20.00
2019-01-18T15:56:52.184Z,20.00
2019-01-18T15:58:45.001Z,16.00
2019-01-18T15:59:44.831Z,12.00
2019-01-18T16:01:37.716Z,8.00
2019-01-18T16:02:37.473Z,8.00
2019-01-18T16:04:30.250Z,4.00
2019-01-18T16:05:30.144Z,8.00
2019-01-18T16:07:22.907Z,4.00
2019-01-18T16:08:22.769Z,0.00
2019-01-18T16:10:15.573Z,4.00
2019-01-18T16:11:15.420Z,0.00
2019-01-18T16:13:09.291Z,0.00
2019-01-18T16:14:08.876Z,0.00
2019-01-18T16:16:01.686Z,0.00
2019-01-18T16:17:01.533Z,0.00
2019-01-18T16:18:54.433Z,0.00
2019-01-18T16:19:54.284Z,0.00
2019-01-18T16:21:47.063Z,0.00
2019-01-18T16:22:46.939Z,0.00
2019-01-18T16:24:39.803Z,0.00
2019-01-18T16:25:39.674Z,0.00
2019-01-18T16:27:32.460Z,0.00
2019-01-18T16:28:32.328Z,0.00
2019-01-18T16:30:25.222Z,0.00
2019-01-18T16:31:25.048Z,0.00
2019-01-18T16:33:23.410Z,0.00
2019-01-18T16:34:18.128Z,0.00
2019-01-18T16:36:10.915Z,0.00
2019-01-18T16:37:10.773Z,0.00
2019-01-18T16:39:03.684Z,0.00
2019-01-18T16:40:03.552Z,0.00
2019-01-18T16:41:56.404Z,0.00
2019-01-18T16:42:56.275Z,0.00
2019-01-18T16:44:49.067Z,0.00
2019-01-18T16:45:48.920Z,0.00
2019-01-18T16:47:41.908Z,0.00
2019-01-18T16:48:41.769Z,0.00
2019-01-18T16:50:34.563Z,0.00
2019-01-18T16:51:34.398Z,0.00
2019-01-18T16:53:27.213Z,0.00
2019-01-18T16:54:27.069Z,0.00
2019-01-18T16:56:19.846Z,0.00
2019-01-18T16:57:19.717Z,0.00
2019-01-18T16:59:12.595Z,0.00
2019-01-18T17:00:12.509Z,0.00
2019-01-18T17:02:05.344Z,0.00
2019-01-18T17:03:05.221Z,0.00
2019-01-18T17:04:58.121Z,0.00
2019-01-18T17:05:57.958Z,0.00
2019-01-18T17:07:50.878Z,0.00
2019-01-18T17:08:50.718Z,0.00
2019-01-18T17:10:44.435Z,0.00
2019-01-18T17:11:44.301Z,0.00
2019-01-18T17:13:37.167Z,0.00
2019-01-18T17:14:37.058Z,0.00
2019-01-18T17:16:29.910Z,0.00
2019-01-18T17:17:29.776Z,0.00
2019-01-18T17:19:22.702Z,0.00
2019-01-18T17:20:22.523Z,0.00
2019-01-18T17:22:15.407Z,0.00
2019-01-18T17:23:15.303Z,0.00
2019-01-18T17:25:08.980Z,0.00
2019-01-18T17:26:08.857Z,0.00
2019-01-18T17:28:01.728Z,0.00
2019-01-18T17:29:01.863Z,0.00
2019-01-18T17:30:54.479Z,0.00
2019-01-18T17:31:54.341Z,0.00
2019-01-18T17:33:48.094Z,0.00
2019-01-18T17:34:47.092Z,0.00
2019-01-18T17:36:39.971Z,0.00
2019-01-18T17:37:39.859Z,0.00
2019-01-18T17:39:32.723Z,0.00
2019-01-18T17:40:32.590Z,0.00
2019-01-18T17:42:25.476Z,0.00
2019-01-18T17:43:25.342Z,0.00
2019-01-18T17:45:18.233Z,0.00
2019-01-18T17:46:18.102Z,0.00
2019-01-18T17:48:10.997Z,0.00
2019-01-18T17:49:10.853Z,0.00
2019-01-18T17:51:08.998Z,0.00
2019-01-18T17:52:03.589Z,0.00
2019-01-18T17:53:56.472Z,0.00
2019-01-18T17:54:56.355Z,0.00
2019-01-18T17:56:49.326Z,0.00
2019-01-18T17:57:49.195Z,0.00
2019-01-18T17:59:42.077Z,0.00
2019-01-18T18:00:41.983Z,0.00
2019-01-18T18:02:34.826Z,0.00
2019-01-18T18:03:36.564Z,0.00
2019-01-18T18:05:27.574Z,0.00
2019-01-18T18:06:27.441Z,0.00
2019-01-18T18:08:20.324Z,0.00
2019-01-18T18:09:20.202Z,0.00
2019-01-18T18:11:13.112Z,0.00
2019-01-18T18:12:12.937Z,0.00
2019-01-18T18:14:05.808Z,0.00
2019-01-18T18:15:05.648Z,0.00
2019-01-18T18:16:58.467Z,0.00
2019-01-18T18:17:58.342Z,0.00
2019-01-18T18:19:51.224Z,0.00
2019-01-18T18:20:51.106Z,0.00